createdAt,value
2022-12-15T00:00:17.119Z,-2.70
2022-12-15T00:03:02.703Z,-2.70
2022-12-15T00:05:50.047Z,-2.70
2022-12-15T00:08:37.977Z,-2.70
2022-12-15T00:11:23.789Z,-2.70
2022-12-15T00:14:09.187Z,-2.70
2022-12-15T00:16:54.615Z,-2.70
2022-12-15T00:19:40.077Z,-2.80
2022-12-15T00:22:25.515Z,-2.80
2022-12-15T00:25:10.814Z,-2.80
2022-12-15T00:27:56.140Z,-2.80
2022-12-15T00:30:41.523Z,-2.70
2022-12-15T00:33:30.452Z,-2.70
2022-12-15T00:36:18.437Z,-2.70
2022-12-15T00:38:48.487Z,-2.70
2022-12-15T00:41:18.042Z,-2.70
2022-12-15T00:43:45.540Z,-2.70
2022-12-15T00:46:31.460Z,-2.70
2022-12-15T00:48:58.589Z,-2.80
2022-12-15T00:51:44.544Z,-2.80
2022-12-15T00:54:29.889Z,-2.80
2022-12-15T00:57:15.290Z,-2.80
2022-12-15T01:00:00.410Z,-2.80
2022-12-15T01:02:45.755Z,-2.70
2022-12-15T01:05:31.292Z,-2.80
2022-12-15T01:08:18.823Z,-2.80
2022-12-15T01:11:04.163Z,-2.70
2022-12-15T01:13:49.721Z,-2.70
2022-12-15T01:16:35.294Z,-2.70
2022-12-15T01:19:20.733Z,-2.70
2022-12-15T01:21:49.531Z,-2.60
2022-12-15T01:24:16.280Z,-2.70
2022-12-15T01:26:42.990Z,-2.70
2022-12-15T01:29:09.698Z,-2.80
2022-12-15T01:31:36.590Z,-2.80
2022-12-15T01:34:03.413Z,-2.80
2022-12-15T01:36:30.185Z,-2.80
2022-12-15T01:38:56.885Z,-2.80
2022-12-15T01:41:24.168Z,-2.80
2022-12-15T01:43:51.079Z,-2.80
2022-12-15T01:46:21.898Z,-2.80
2022-12-15T01:49:02.828Z,-2.80
2022-12-15T01:51:39.274Z,-2.90
2022-12-15T01:54:20.825Z,-2.90
2022-12-15T01:56:56.855Z,-2.90
2022-12-15T01:59:34.837Z,-2.80
2022-12-15T02:02:03.319Z,-2.80
2022-12-15T02:04:31.856Z,-2.80
2022-12-15T02:06:58.541Z,-2.80
2022-12-15T02:09:27.937Z,-2.80
2022-12-15T02:12:51.201Z,-2.90
2022-12-15T02:15:29.654Z,-2.80
2022-12-15T02:18:25.425Z,-2.80
2022-12-15T02:21:17.814Z,-2.80
2022-12-15T02:24:10.584Z,-2.80
2022-12-15T02:27:25.316Z,-2.80
2022-12-15T02:30:19.535Z,-2.80
2022-12-15T02:33:17.113Z,-2.80
2022-12-15T02:36:02.112Z,-2.80
2022-12-15T02:38:41.519Z,-2.80
2022-12-15T02:41:32.552Z,-2.80
2022-12-15T02:44:01.152Z,-2.90
2022-12-15T02:46:59.190Z,-2.80
2022-12-15T02:50:13.059Z,-2.80
2022-12-15T02:53:00.588Z,-2.80
2022-12-15T02:56:08.128Z,-2.80
2022-12-15T02:59:00.411Z,-2.80
2022-12-15T03:01:56.880Z,-2.90
2022-12-15T03:04:25.734Z,-2.90
2022-12-15T03:07:01.084Z,-2.90
2022-12-15T03:09:28.368Z,-2.90
2022-12-15T03:11:55.104Z,-2.90
2022-12-15T03:14:22.555Z,-2.90
2022-12-15T03:16:49.323Z,-2.90
2022-12-15T03:19:16.090Z,-2.80
2022-12-15T03:21:42.823Z,-2.90
2022-12-15T03:24:09.611Z,-2.90
2022-12-15T03:26:36.323Z,-2.90
2022-12-15T03:29:03.722Z,-2.90
2022-12-15T03:31:30.493Z,-2.90
2022-12-15T03:33:57.298Z,-2.90
2022-12-15T03:36:24.064Z,-2.90
2022-12-15T03:38:50.856Z,-2.90
2022-12-15T03:41:20.551Z,-2.90
2022-12-15T03:43:49.718Z,-2.90
2022-12-15T03:46:17.104Z,-2.90
2022-12-15T03:48:44.081Z,-2.90
2022-12-15T03:51:11.007Z,-2.90
2022-12-15T03:53:38.805Z,-2.80
2022-12-15T03:56:06.041Z,-2.80
2022-12-15T03:58:32.785Z,-2.80
2022-12-15T04:00:59.556Z,-2.90
2022-12-15T04:03:26.346Z,-2.90
2022-12-15T04:05:53.164Z,-2.90
2022-12-15T04:08:26.471Z,-3.00
2022-12-15T04:10:53.367Z,-2.90
2022-12-15T04:13:20.174Z,-2.90
2022-12-15T04:15:46.880Z,-2.90
2022-12-15T04:18:13.695Z,-2.90
2022-12-15T04:20:41.081Z,-2.90
2022-12-15T04:23:08.282Z,-2.90
2022-12-15T04:25:54.716Z,-2.90
2022-12-15T04:28:40.728Z,-3.00
2022-12-15T04:31:35.588Z,-3.10
2022-12-15T04:34:24.872Z,-3.10
2022-12-15T04:37:12.287Z,-3.10
2022-12-15T04:40:06.234Z,-3.00
2022-12-15T04:42:54.128Z,-3.00
2022-12-15T04:45:43.488Z,-3.00
2022-12-15T04:48:30.061Z,-3.10
2022-12-15T04:51:15.580Z,-3.10
2022-12-15T04:54:04.568Z,-3.10
2022-12-15T04:56:51.604Z,-3.10
2022-12-15T04:59:36.777Z,-3.10
2022-12-15T05:02:22.234Z,-3.10
2022-12-15T05:05:07.497Z,-3.20
2022-12-15T05:07:52.943Z,-3.10
2022-12-15T05:10:38.380Z,-3.10
2022-12-15T05:13:26.148Z,-3.10
2022-12-15T05:16:11.654Z,-3.10
2022-12-15T05:18:56.977Z,-3.10
2022-12-15T05:21:42.373Z,-3.20
2022-12-15T05:24:27.766Z,-3.20
2022-12-15T05:27:12.888Z,-3.10
2022-12-15T05:29:58.365Z,-3.20
2022-12-15T05:32:25.081Z,-3.30
2022-12-15T05:34:51.764Z,-3.20
2022-12-15T05:37:18.536Z,-3.20
2022-12-15T05:39:45.255Z,-3.20
2022-12-15T05:42:12.047Z,-3.30
2022-12-15T05:44:38.828Z,-3.30
2022-12-15T05:47:05.585Z,-3.20
2022-12-15T05:49:33.294Z,-3.20
2022-12-15T05:52:00.029Z,-3.20
2022-12-15T05:54:27.074Z,-3.20
2022-12-15T05:56:53.871Z,-3.20
2022-12-15T05:59:20.640Z,-3.20
2022-12-15T06:01:47.590Z,-3.20
2022-12-15T06:04:14.673Z,-3.20
2022-12-15T06:06:42.323Z,-3.10
2022-12-15T06:09:10.049Z,-3.10
2022-12-15T06:11:37.381Z,-3.20
2022-12-15T06:14:04.408Z,-3.20
2022-12-15T06:16:32.001Z,-3.20
2022-12-15T06:19:01.856Z,-3.10
2022-12-15T06:21:38.060Z,-3.10
2022-12-15T06:24:06.141Z,-3.20
2022-12-15T06:26:38.465Z,-3.20
2022-12-15T06:29:10.044Z,-3.10
2022-12-15T06:31:38.145Z,-3.20
2022-12-15T06:34:08.436Z,-3.20
2022-12-15T06:36:36.425Z,-3.20
2022-12-15T06:39:06.384Z,-3.20
2022-12-15T06:41:33.198Z,-3.10
2022-12-15T06:44:00.752Z,-3.20
2022-12-15T06:46:30.324Z,-3.10
2022-12-15T06:48:58.532Z,-3.10
2022-12-15T06:51:27.097Z,-3.10
2022-12-15T06:53:55.128Z,-3.10
2022-12-15T06:56:35.989Z,-3.10
2022-12-15T06:59:05.247Z,-3.10
2022-12-15T07:01:32.733Z,-3.20
2022-12-15T07:04:01.363Z,-3.10
2022-12-15T07:06:36.026Z,-3.20
2022-12-15T07:09:04.419Z,-3.20
2022-12-15T07:11:31.146Z,-3.30
2022-12-15T07:13:57.865Z,-3.30
2022-12-15T07:16:24.933Z,-3.30
2022-12-15T07:18:52.203Z,-3.40
2022-12-15T07:21:19.817Z,-3.30
2022-12-15T07:23:55.952Z,-3.30
2022-12-15T07:26:25.511Z,-3.30
2022-12-15T07:28:53.356Z,-3.30
2022-12-15T07:31:20.661Z,-3.20
2022-12-15T07:33:48.140Z,-3.10
2022-12-15T07:36:15.043Z,-3.20
2022-12-15T07:38:41.756Z,-3.30
2022-12-15T07:41:09.885Z,-3.20
2022-12-15T07:43:37.632Z,-3.20
2022-12-15T07:46:05.794Z,-3.20
2022-12-15T07:48:33.951Z,-3.10
2022-12-15T07:51:10.922Z,-3.10
2022-12-15T07:53:38.376Z,-3.10
2022-12-15T07:56:09.032Z,-3.10
2022-12-15T07:58:37.752Z,-3.10
2022-12-15T08:01:12.481Z,-3.00
2022-12-15T08:03:40.003Z,-2.90
2022-12-15T08:06:11.030Z,-2.90
2022-12-15T08:08:38.373Z,-2.90
2022-12-15T08:11:11.921Z,-2.90
2022-12-15T08:16:27.886Z,-2.90
2022-12-15T08:18:56.974Z,-2.80
2022-12-15T08:21:24.124Z,-2.80
2022-12-15T08:23:50.933Z,-2.70
2022-12-15T08:26:21.392Z,-2.70
2022-12-15T08:28:53.980Z,-2.70
2022-12-15T08:31:23.523Z,-2.70
2022-12-15T08:33:50.899Z,-2.60
2022-12-15T08:36:20.343Z,-2.50
2022-12-15T08:38:47.749Z,-2.40
2022-12-15T08:41:22.879Z,-2.30
2022-12-15T08:43:51.446Z,-2.20
2022-12-15T08:46:22.380Z,-2.20
2022-12-15T08:48:50.291Z,-2.20
2022-12-15T08:51:17.575Z,-2.10
2022-12-15T08:53:45.130Z,-2.00
2022-12-15T08:56:19.296Z,-2.00
2022-12-15T08:58:48.361Z,-1.90
2022-12-15T09:01:23.308Z,-1.70
2022-12-15T09:03:53.653Z,-1.70
2022-12-15T09:06:30.497Z,-1.70
2022-12-15T09:09:01.284Z,-1.60
2022-12-15T09:11:30.410Z,-1.60
2022-12-15T09:13:58.224Z,-1.60
2022-12-15T09:16:25.838Z,-1.60
2022-12-15T09:18:55.925Z,-1.60
2022-12-15T09:21:26.122Z,-1.50
2022-12-15T09:23:55.978Z,-1.50
2022-12-15T09:26:24.048Z,-1.50
2022-12-15T09:28:51.819Z,-1.40
2022-12-15T09:31:25.860Z,-1.40
2022-12-15T09:33:55.135Z,-1.30
2022-12-15T09:36:23.567Z,-1.20
2022-12-15T09:38:50.489Z,-1.20
2022-12-15T09:41:32.483Z,-1.20
2022-12-15T09:44:20.249Z,-1.10
2022-12-15T09:47:44.784Z,-1.00
2022-12-15T09:50:15.776Z,-0.90
2022-12-15T09:53:00.479Z,-0.70
2022-12-15T09:55:30.894Z,-0.60
2022-12-15T09:58:22.265Z,-0.50
2022-12-15T10:01:29.656Z,-0.40
2022-12-15T10:04:18.230Z,-0.30
2022-12-15T10:06:59.774Z,-0.30
2022-12-15T10:09:29.712Z,-0.30
2022-12-15T10:12:07.472Z,-0.50
2022-12-15T10:15:12.326Z,-0.60
2022-12-15T10:17:48.499Z,-0.50
2022-12-15T10:20:22.087Z,-0.50
2022-12-15T10:22:50.403Z,-0.40
2022-12-15T10:25:32.852Z,-0.30
2022-12-15T10:28:38.465Z,-0.20
2022-12-15T10:31:52.697Z,-0.20
2022-12-15T10:34:36.365Z,-0.20
2022-12-15T10:37:03.683Z,-0.20
2022-12-15T10:39:43.432Z,-0.20
2022-12-15T10:42:47.239Z,-0.20
2022-12-15T10:45:37.749Z,-0.20
2022-12-15T10:48:06.733Z,-0.20
2022-12-15T10:50:35.363Z,-0.20
2022-12-15T10:53:09.512Z,-0.30
2022-12-15T10:55:38.969Z,-0.20
2022-12-15T10:58:23.427Z,-0.20
2022-12-15T11:01:14.447Z,-0.10
2022-12-15T11:03:41.820Z,0.00
2022-12-15T11:06:19.534Z,0.10
2022-12-15T11:08:47.608Z,0.20
2022-12-15T11:11:50.377Z,0.20
2022-12-15T11:14:26.780Z,0.10
2022-12-15T11:16:59.004Z,0.00
2022-12-15T11:19:56.730Z,-0.20
2022-12-15T11:22:46.701Z,-0.40
2022-12-15T11:25:31.384Z,-0.40
2022-12-15T11:28:04.291Z,-0.50
2022-12-15T11:30:45.519Z,-0.50
2022-12-15T11:33:12.241Z,-0.50
2022-12-15T11:36:10.031Z,-0.40
2022-12-15T11:39:20.626Z,-0.40
2022-12-15T11:42:18.188Z,-0.40
2022-12-15T11:45:26.772Z,-0.20
2022-12-15T11:48:06.122Z,-0.10
2022-12-15T11:50:51.142Z,-0.10
2022-12-15T11:53:59.324Z,0.00
2022-12-15T11:56:35.282Z,0.10
2022-12-15T11:59:25.247Z,0.00
2022-12-15T12:02:33.181Z,0.00
2022-12-15T12:05:18.582Z,-0.10
2022-12-15T12:07:49.300Z,-0.10
2022-12-15T12:10:47.526Z,-0.20
2022-12-15T12:14:02.592Z,-0.10
2022-12-15T12:17:24.786Z,-0.20
2022-12-15T12:19:59.111Z,-0.30
2022-12-15T12:22:42.193Z,-0.30
2022-12-15T12:25:22.487Z,-0.30
2022-12-15T12:28:03.775Z,-0.30
2022-12-15T12:30:44.305Z,-0.30
2022-12-15T12:33:44.565Z,-0.20
2022-12-15T12:36:16.224Z,-0.20
2022-12-15T12:38:52.877Z,-0.20
2022-12-15T12:42:17.770Z,-0.30
2022-12-15T12:44:48.931Z,-0.30
2022-12-15T12:47:36.293Z,-0.30
2022-12-15T12:50:16.697Z,-0.40
2022-12-15T12:52:57.233Z,-0.40
2022-12-15T12:55:41.901Z,-0.40
2022-12-15T12:58:36.214Z,-0.40
2022-12-15T13:01:25.523Z,-0.30
2022-12-15T13:04:07.392Z,-0.30
2022-12-15T13:06:34.118Z,-0.30
2022-12-15T13:09:23.907Z,-0.30
2022-12-15T13:11:53.244Z,-0.30
2022-12-15T13:14:26.986Z,-0.40
2022-12-15T13:17:38.961Z,-0.40
2022-12-15T13:20:20.152Z,-0.30
2022-12-15T13:22:47.229Z,-0.30
2022-12-15T13:25:41.069Z,-0.30
2022-12-15T13:28:37.099Z,-0.20
2022-12-15T13:31:19.101Z,-0.20
2022-12-15T13:33:52.337Z,-0.20
2022-12-15T13:36:40.039Z,-0.20
2022-12-15T13:39:12.462Z,-0.30
2022-12-15T13:44:57.262Z,-0.20
2022-12-15T13:47:29.301Z,-0.10
2022-12-15T13:50:12.329Z,-0.10
2022-12-15T13:55:46.145Z,-0.10
2022-12-15T13:58:18.133Z,-0.10
2022-12-15T14:00:54.022Z,-0.10
2022-12-15T14:03:22.062Z,-0.10
2022-12-15T14:05:52.709Z,-0.10
2022-12-15T14:08:23.392Z,-0.20
2022-12-15T14:10:56.973Z,-0.20
2022-12-15T14:13:30.116Z,-0.20
2022-12-15T14:16:15.184Z,-0.20
2022-12-15T14:18:43.898Z,-0.20
2022-12-15T14:21:26.876Z,-0.30
2022-12-15T14:24:36.576Z,-0.30
2022-12-15T14:26:42.101Z,-0.30
2022-12-15T14:29:10.523Z,-0.30
2022-12-15T14:31:38.068Z,-0.40
2022-12-15T14:34:35.164Z,-0.50
2022-12-15T14:37:07.767Z,-0.60
2022-12-15T14:39:50.055Z,-0.60
2022-12-15T14:42:27.948Z,-0.70
2022-12-15T14:48:30.637Z,-0.80
2022-12-15T14:50:48.003Z,-0.90
2022-12-15T14:53:20.217Z,-0.80
2022-12-15T14:55:47.106Z,-1.00
2022-12-15T14:58:36.164Z,-1.00
2022-12-15T15:01:21.260Z,-1.10
2022-12-15T15:03:06.025Z,-0.80
2022-12-15T15:04:04.834Z,-1.10
2022-12-15T15:06:38.389Z,-1.20
2022-12-15T15:09:41.661Z,-1.60
2022-12-15T15:12:22.279Z,-1.30
2022-12-15T15:14:58.089Z,-1.30
2022-12-15T15:17:36.155Z,-1.30
2022-12-15T15:20:18.303Z,-1.40
2022-12-15T15:22:47.573Z,-1.40
2022-12-15T15:25:26.045Z,-1.40
2022-12-15T15:28:01.074Z,-1.50
2022-12-15T15:30:28.094Z,-1.60
2022-12-15T15:32:57.364Z,-1.60
2022-12-15T15:35:30.767Z,-1.60
2022-12-15T15:38:14.548Z,-1.70
2022-12-15T15:40:41.300Z,-1.70
2022-12-15T15:43:12.419Z,-1.70
2022-12-15T15:45:41.945Z,-1.70
2022-12-15T15:48:24.972Z,-1.70
2022-12-15T15:50:52.105Z,-1.70
2022-12-15T15:53:23.843Z,-1.80
2022-12-15T15:55:53.545Z,-1.70
2022-12-15T15:58:20.627Z,-1.80
2022-12-15T16:00:47.405Z,-1.80
2022-12-15T16:03:14.360Z,-1.80
2022-12-15T16:05:42.737Z,-1.80
2022-12-15T16:08:24.315Z,-1.80
2022-12-15T16:10:51.113Z,-1.80
2022-12-15T16:13:25.809Z,-1.80
2022-12-15T16:15:53.947Z,-1.80
2022-12-15T16:18:21.304Z,-1.80
2022-12-15T16:20:51.940Z,-1.80
2022-12-15T16:23:23.698Z,-1.80
2022-12-15T16:26:00.107Z,-1.80
2022-12-15T16:28:30.703Z,-1.90
2022-12-15T16:30:58.701Z,-1.90
2022-12-15T16:33:25.779Z,-1.90
2022-12-15T16:35:53.515Z,-1.90
2022-12-15T16:38:26.730Z,-1.90
2022-12-15T16:40:55.681Z,-1.90
2022-12-15T16:43:32.861Z,-1.90
2022-12-15T16:46:03.306Z,-2.00
2022-12-15T16:48:30.504Z,-2.00
2022-12-15T16:50:59.063Z,-2.00
2022-12-15T16:53:31.977Z,-2.00
2022-12-15T16:56:02.856Z,-2.00
2022-12-15T16:58:31.757Z,-2.10
2022-12-15T17:00:58.684Z,-2.10
2022-12-15T17:03:28.631Z,-2.10
2022-12-15T17:06:04.019Z,-2.10
2022-12-15T17:08:43.627Z,-2.10
2022-12-15T17:11:19.082Z,-2.10
2022-12-15T17:13:51.076Z,-2.10
2022-12-15T17:16:20.495Z,-2.10
2022-12-15T17:18:47.947Z,-2.10
2022-12-15T17:21:32.102Z,-2.10
2022-12-15T17:24:12.371Z,-2.10
2022-12-15T17:26:39.565Z,-2.10
2022-12-15T17:29:13.055Z,-2.10
2022-12-15T17:31:39.935Z,-2.10
2022-12-15T17:34:32.982Z,-2.10
2022-12-15T17:37:04.185Z,-2.10
2022-12-15T17:39:33.877Z,-2.10
2022-12-15T17:42:02.054Z,-2.00
2022-12-15T17:44:38.292Z,-2.00
2022-12-15T17:47:08.706Z,-2.10
2022-12-15T17:49:38.031Z,-2.10
2022-12-15T17:52:34.155Z,-2.10
2022-12-15T17:55:04.043Z,-2.10
2022-12-15T17:57:31.878Z,-2.10
2022-12-15T18:00:01.716Z,-2.20
2022-12-15T18:02:28.610Z,-2.20
2022-12-15T18:04:55.613Z,-2.20
2022-12-15T18:07:23.988Z,-2.20
2022-12-15T18:09:52.440Z,-2.20
2022-12-15T18:12:28.973Z,-2.30
2022-12-15T18:14:56.748Z,-2.30
2022-12-15T18:17:23.978Z,-2.30
2022-12-15T18:19:53.887Z,-2.30
2022-12-15T18:22:25.117Z,-2.00
2022-12-15T18:24:54.158Z,-2.40
2022-12-15T18:27:26.555Z,-2.40
2022-12-15T18:29:54.009Z,-2.40
2022-12-15T18:32:25.801Z,-2.40
2022-12-15T18:34:53.758Z,-2.40
2022-12-15T18:37:23.336Z,-2.40
2022-12-15T18:39:50.633Z,-2.40
2022-12-15T18:42:21.722Z,-2.40
2022-12-15T18:44:52.062Z,-2.40
2022-12-15T18:47:22.888Z,-2.40
2022-12-15T18:49:51.890Z,-2.50
2022-12-15T18:52:22.601Z,-2.50
2022-12-15T18:54:52.198Z,-2.50
2022-12-15T18:57:36.242Z,-2.60
2022-12-15T19:00:25.819Z,-2.70
2022-12-15T19:02:56.163Z,-2.70
2022-12-15T19:05:28.317Z,-2.70
2022-12-15T19:08:10.728Z,-2.70
2022-12-15T19:10:52.254Z,-2.80
2022-12-15T19:13:23.364Z,-2.80
2022-12-15T19:15:51.228Z,-2.80
2022-12-15T19:18:39.865Z,-2.80
2022-12-15T19:21:43.441Z,-2.80
2022-12-15T19:24:17.580Z,-2.80
2022-12-15T19:26:44.287Z,-2.80
2022-12-15T19:29:23.776Z,-2.80
2022-12-15T19:31:51.298Z,-2.80
2022-12-15T19:34:18.021Z,-2.80
2022-12-15T19:36:44.719Z,-2.80
2022-12-15T19:39:23.124Z,-2.70
2022-12-15T19:41:50.699Z,-2.70
2022-12-15T19:44:17.573Z,-2.80
2022-12-15T19:46:45.047Z,-2.70
2022-12-15T19:49:11.760Z,-2.70
2022-12-15T19:51:39.742Z,-2.70
2022-12-15T19:54:06.644Z,-2.70
2022-12-15T19:56:33.373Z,-2.60
2022-12-15T19:59:00.131Z,-2.60
2022-12-15T20:01:26.974Z,-2.60
2022-12-15T20:03:54.086Z,-2.60
2022-12-15T20:06:27.274Z,-2.60
2022-12-15T20:08:56.107Z,-2.60
2022-12-15T20:11:30.917Z,-2.50
2022-12-15T20:13:57.970Z,-2.50
2022-12-15T20:16:25.239Z,-2.50
2022-12-15T20:18:55.038Z,-2.50
2022-12-15T20:21:28.903Z,-2.40
2022-12-15T20:24:01.954Z,-2.40
2022-12-15T20:26:30.616Z,-2.40
2022-12-15T20:28:57.947Z,-2.40
2022-12-15T20:31:26.270Z,-2.30
2022-12-15T20:33:53.340Z,-2.30
2022-12-15T20:36:29.738Z,-2.30
2022-12-15T20:38:57.081Z,-2.30
2022-12-15T20:41:28.185Z,-2.20
2022-12-15T20:43:56.454Z,-2.20
2022-12-15T20:46:34.725Z,-2.20
2022-12-15T20:49:02.191Z,-2.20
2022-12-15T20:51:32.670Z,-2.10
2022-12-15T20:54:02.743Z,-2.20
2022-12-15T20:56:29.658Z,-2.10
2022-12-15T20:58:58.647Z,-2.10
2022-12-15T21:01:35.116Z,-2.10
2022-12-15T21:04:25.816Z,-2.10
2022-12-15T21:06:55.140Z,-2.00
2022-12-15T21:09:23.276Z,-2.10
2022-12-15T21:11:51.742Z,-2.00
2022-12-15T21:14:22.463Z,-2.00
2022-12-15T21:16:50.299Z,-2.00
2022-12-15T21:19:21.996Z,-2.00
2022-12-15T21:21:55.553Z,-2.00
2022-12-15T21:24:27.155Z,-1.90
2022-12-15T21:26:54.840Z,-1.90
2022-12-15T21:29:25.448Z,-1.90
2022-12-15T21:31:52.552Z,-1.90
2022-12-15T21:34:19.258Z,-1.90
2022-12-15T21:36:52.332Z,-1.90
2022-12-15T21:39:29.595Z,-1.80
2022-12-15T21:42:01.195Z,-1.80
2022-12-15T21:44:27.947Z,-1.80
2022-12-15T21:46:54.849Z,-1.80
2022-12-15T21:49:21.995Z,-1.70
2022-12-15T21:51:55.199Z,-1.70
2022-12-15T21:54:31.359Z,-1.70
2022-12-15T21:57:02.511Z,-1.70
2022-12-15T21:59:32.136Z,-1.70
2022-12-15T22:02:31.392Z,-1.70
2022-12-15T22:04:58.251Z,-1.60
2022-12-15T22:07:24.965Z,-1.60
2022-12-15T22:09:51.885Z,-1.60
2022-12-15T22:12:23.603Z,-1.60
2022-12-15T22:14:50.736Z,-1.60
2022-12-15T22:17:22.014Z,-1.60
2022-12-15T22:19:48.819Z,-1.60
2022-12-15T22:22:16.478Z,-1.50
2022-12-15T22:24:43.842Z,-1.50
2022-12-15T22:27:20.488Z,-1.50
2022-12-15T22:29:49.064Z,-1.50
2022-12-15T22:32:17.391Z,-1.50
2022-12-15T22:34:44.081Z,-1.50
2022-12-15T22:37:10.778Z,-1.50
2022-12-15T22:39:37.472Z,-1.50
2022-12-15T22:42:05.220Z,-1.50
2022-12-15T22:44:37.183Z,-1.50
2022-12-15T22:47:06.415Z,-1.50
2022-12-15T22:49:38.869Z,-1.50
2022-12-15T22:52:20.598Z,-1.50
2022-12-15T22:54:47.813Z,-1.50
2022-12-15T22:57:24.847Z,-1.50
2022-12-15T23:00:04.033Z,-1.40
2022-12-15T23:02:38.882Z,-1.40
2022-12-15T23:05:09.121Z,-1.40
2022-12-15T23:07:36.007Z,-1.50
2022-12-15T23:10:27.187Z,-1.40
2022-12-15T23:12:54.527Z,-1.40
2022-12-15T23:15:46.210Z,-1.40
2022-12-15T23:18:13.965Z,-1.40
2022-12-15T23:20:41.187Z,-1.40
2022-12-15T23:23:09.814Z,-1.40
2022-12-15T23:25:36.523Z,-1.50
2022-12-15T23:28:03.575Z,-1.50
2022-12-15T23:30:30.324Z,-1.50
2022-12-15T23:32:57.105Z,-1.50
2022-12-15T23:35:23.947Z,-1.50
2022-12-15T23:37:50.882Z,-1.50
2022-12-15T23:40:21.991Z,-1.50
2022-12-15T23:42:50.184Z,-1.50
2022-12-15T23:45:17.964Z,-1.50
2022-12-15T23:47:44.841Z,-1.50
2022-12-15T23:50:11.842Z,-1.50
2022-12-15T23:52:38.771Z,-1.50
2022-12-15T23:55:09.855Z,-1.50
2022-12-15T23:57:38.080Z,-1.60
